sensor_id;sensor_type;location;lat;lon;timestamp;pressure;altitude;pressure_sealevel;temperature;humidity
26443;BME280;5563;52.296;6.806;2023-05-19T00:01:06;102636.44;;;7.79;79.43
26443;BME280;5563;52.296;6.806;2023-05-19T00:03:34;102631.44;;;7.71;79.50
26443;BME280;5563;52.296;6.806;2023-05-19T00:06:31;102637.63;;;7.72;78.70
26443;BME280;5563;52.296;6.806;2023-05-19T00:09:09;102636.81;;;7.70;79.42
26443;BME280;5563;52.296;6.806;2023-05-19T00:11:43;102601.34;;;7.49;80.16
26443;BME280;5563;52.296;6.806;2023-05-19T00:14:17;102617.66;;;7.61;80.16
26443;BME280;5563;52.296;6.806;2023-05-19T00:16:51;102617.66;;;7.61;80.09
26443;BME280;5563;52.296;6.806;2023-05-19T00:19:18;102619.44;;;7.61;80.63
26443;BME280;5563;52.296;6.806;2023-05-19T00:21:51;102608.03;;;7.59;81.10
26443;BME280;5563;52.296;6.806;2023-05-19T00:24:25;102608.97;;;7.58;80.82
26443;BME280;5563;52.296;6.806;2023-05-19T00:26:52;102608.03;;;7.59;81.40
26443;BME280;5563;52.296;6.806;2023-05-19T00:29:25;102626.44;;;7.63;81.52
26443;BME280;5563;52.296;6.806;2023-05-19T00:31:52;102615.81;;;7.63;81.29
26443;BME280;5563;52.296;6.806;2023-05-19T00:34:32;102623.72;;;7.65;81.48
26443;BME280;5563;52.296;6.806;2023-05-19T00:37:12;102620.25;;;7.63;82.12
26443;BME280;5563;52.296;6.806;2023-05-19T00:39:46;102623.03;;;7.60;81.89
26443;BME280;5563;52.296;6.806;2023-05-19T00:42:15;102615.31;;;7.54;82.05
26443;BME280;5563;52.296;6.806;2023-05-19T00:44:48;102621.63;;;7.51;82.28
26443;BME280;5563;52.296;6.806;2023-05-19T00:47:15;102628.84;;;7.48;81.17
26443;BME280;5563;52.296;6.806;2023-05-19T00:49:50;102632.41;;;7.47;82.29
26443;BME280;5563;52.296;6.806;2023-05-19T00:52:16;102626.34;;;7.43;82.75
26443;BME280;5563;52.296;6.806;2023-05-19T00:54:51;102632.75;;;7.38;81.43
26443;BME280;5563;52.296;6.806;2023-05-19T00:57:19;102613.56;;;7.31;82.23
26443;BME280;5563;52.296;6.806;2023-05-19T00:59:53;102593.66;;;7.21;82.99
26443;BME280;5563;52.296;6.806;2023-05-19T01:02:21;102594.44;;;7.23;83.80
26443;BME280;5563;52.296;6.806;2023-05-19T01:04:49;102595.25;;;7.25;83.47
26443;BME280;5563;52.296;6.806;2023-05-19T01:07:24;102606.41;;;7.33;83.44
26443;BME280;5563;52.296;6.806;2023-05-19T01:09:57;102600.44;;;7.28;83.12
26443;BME280;5563;52.296;6.806;2023-05-19T01:12:25;102605.63;;;7.31;83.58
26443;BME280;5563;52.296;6.806;2023-05-19T01:14:58;102603.09;;;7.28;84.01
26443;BME280;5563;52.296;6.806;2023-05-19T01:20:25;102595.41;;;7.21;84.43
26443;BME280;5563;52.296;6.806;2023-05-19T01:32:03;102592.09;;;7.16;85.08
26443;BME280;5563;52.296;6.806;2023-05-19T01:34:41;102592.97;;;7.16;85.66
26443;BME280;5563;52.296;6.806;2023-05-19T01:37:22;102598.19;;;7.18;85.89
26443;BME280;5563;52.296;6.806;2023-05-19T01:39:57;102586.84;;;7.14;85.34
26443;BME280;5563;52.296;6.806;2023-05-19T01:42:25;102569.00;;;6.96;85.28
26443;BME280;5563;52.296;6.806;2023-05-19T01:44:58;102572.56;;;6.95;85.83
26443;BME280;5563;52.296;6.806;2023-05-19T01:47:27;102565.72;;;6.90;85.63
26443;BME280;5563;52.296;6.806;2023-05-19T01:50:01;102579.78;;;6.92;86.23
26443;BME280;5563;52.296;6.806;2023-05-19T01:52:29;102568.66;;;6.82;86.01
26443;BME280;5563;52.296;6.806;2023-05-19T01:55:03;102587.03;;;6.87;86.22
26443;BME280;5563;52.296;6.806;2023-05-19T02:03:31;102609.72;;;6.94;86.36
26443;BME280;5563;52.296;6.806;2023-05-19T02:12:27;102591.06;;;6.74;86.14
26443;BME280;5563;52.296;6.806;2023-05-19T02:15:11;102582.53;;;6.66;86.57
26443;BME280;5563;52.296;6.806;2023-05-19T02:17:49;102594.69;;;6.71;86.74
26443;BME280;5563;52.296;6.806;2023-05-19T02:20:24;102590.53;;;6.64;87.05
26443;BME280;5563;52.296;6.806;2023-05-19T02:22:58;102584.50;;;6.61;87.00
26443;BME280;5563;52.296;6.806;2023-05-19T02:25:25;102583.03;;;6.52;86.76
26443;BME280;5563;52.296;6.806;2023-05-19T02:27:59;102587.53;;;6.50;87.09
26443;BME280;5563;52.296;6.806;2023-05-19T02:30:26;102602.22;;;6.58;87.06
26443;BME280;5563;52.296;6.806;2023-05-19T02:33:00;102594.66;;;6.48;87.42
26443;BME280;5563;52.296;6.806;2023-05-19T02:35:34;102569.19;;;6.44;87.40
26443;BME280;5563;52.296;6.806;2023-05-19T02:38:14;102580.41;;;6.52;87.63
26443;BME280;5563;52.296;6.806;2023-05-19T02:40:42;102583.03;;;6.52;87.59
26443;BME280;5563;52.296;6.806;2023-05-19T02:43:16;102586.66;;;6.49;87.96
26443;BME280;5563;52.296;6.806;2023-05-19T02:45:42;102577.75;;;6.52;87.89
26443;BME280;5563;52.296;6.806;2023-05-19T02:48:16;102574.50;;;6.44;88.19
26443;BME280;5563;52.296;6.806;2023-05-19T02:50:50;102579.00;;;6.42;88.04
26443;BME280;5563;52.296;6.806;2023-05-19T02:53:24;102582.63;;;6.39;87.93
26443;BME280;5563;52.296;6.806;2023-05-19T02:55:51;102578.28;;;6.37;87.98
26443;BME280;5563;52.296;6.806;2023-05-19T02:58:24;102574.88;;;6.33;88.93
26443;BME280;5563;52.296;6.806;2023-05-19T03:00:58;102557.72;;;6.20;88.46
26443;BME280;5563;52.296;6.806;2023-05-19T03:03:25;102563.06;;;6.19;88.34
26443;BME280;5563;52.296;6.806;2023-05-19T03:05:59;102578.72;;;6.25;88.67
26443;BME280;5563;52.296;6.806;2023-05-19T03:08:27;102560.50;;;6.16;88.90
26443;BME280;5563;52.296;6.806;2023-05-19T03:11:02;102557.22;;;6.09;88.69
26443;BME280;5563;52.296;6.806;2023-05-19T03:13:36;102573.00;;;6.12;88.54
26443;BME280;5563;52.296;6.806;2023-05-19T03:16:09;102561.94;;;6.01;88.51
26443;BME280;5563;52.296;6.806;2023-05-19T03:18:44;102564.59;;;6.00;88.64
26443;BME280;5563;52.296;6.806;2023-05-19T03:21:12;102572.47;;;6.03;88.89
26443;BME280;5563;52.296;6.806;2023-05-19T03:23:46;102577.66;;;6.06;88.51
26443;BME280;5563;52.296;6.806;2023-05-19T03:26:13;102566.50;;;5.96;89.08
26443;BME280;5563;52.296;6.806;2023-05-19T03:28:46;102580.34;;;6.04;89.97
26443;BME280;5563;52.296;6.806;2023-05-19T03:31:14;102570.03;;;5.97;90.13
26443;BME280;5563;52.296;6.806;2023-05-19T03:33:49;102558.03;;;5.87;89.39
26443;BME280;5563;52.296;6.806;2023-05-19T03:36:16;102564.22;;;5.86;89.64
26443;BME280;5563;52.296;6.806;2023-05-19T03:39:06;102579.72;;;5.96;89.67
26443;BME280;5563;52.296;6.806;2023-05-19T03:41:40;102561.63;;;5.84;89.70
26443;BME280;5563;52.296;6.806;2023-05-19T03:44:14;102545.94;;;5.78;90.00
26443;BME280;5563;52.296;6.806;2023-05-19T03:46:48;102559.91;;;5.83;90.45
26443;BME280;5563;52.296;6.806;2023-05-19T03:49:21;102572.78;;;5.94;90.06
26443;BME280;5563;52.296;6.806;2023-05-19T03:51:48;102566.78;;;5.89;89.97
26443;BME280;5563;52.296;6.806;2023-05-19T03:54:23;102585.75;;;6.01;90.26
26443;BME280;5563;52.296;6.806;2023-05-19T03:56:50;102562.28;;;5.91;90.14
26443;BME280;5563;52.296;6.806;2023-05-19T03:59:24;102585.72;;;6.03;90.76
26443;BME280;5563;52.296;6.806;2023-05-19T04:02:00;102569.19;;;5.95;90.39
26443;BME280;5563;52.296;6.806;2023-05-19T04:04:27;102573.63;;;5.94;90.29
26443;BME280;5563;52.296;6.806;2023-05-19T04:07:03;102565.97;;;5.87;90.29
26443;BME280;5563;52.296;6.806;2023-05-19T04:09:34;102564.13;;;5.89;90.38
26443;BME280;5563;52.296;6.806;2023-05-19T04:12:08;102585.97;;;5.95;90.29
26443;BME280;5563;52.296;6.806;2023-05-19T04:14:35;102572.06;;;5.89;90.35
26443;BME280;5563;52.296;6.806;2023-05-19T04:17:09;102600.66;;;6.04;90.36
26443;BME280;5563;52.296;6.806;2023-05-19T04:19:44;102597.94;;;6.05;90.55
26443;BME280;5563;52.296;6.806;2023-05-19T04:22:19;102565.09;;;5.86;90.17
26443;BME280;5563;52.296;6.806;2023-05-19T04:24:46;102581.38;;;6.00;90.47
26443;BME280;5563;52.296;6.806;2023-05-19T04:27:24;102579.69;;;5.98;90.50
26443;BME280;5563;52.296;6.806;2023-05-19T04:29:53;102566.44;;;5.98;90.35
26443;BME280;5563;52.296;6.806;2023-05-19T04:32:30;102599.34;;;6.17;90.57
26443;BME280;5563;52.296;6.806;2023-05-19T04:34:57;102560.31;;;5.97;90.21
26443;BME280;5563;52.296;6.806;2023-05-19T04:37:32;102587.09;;;6.13;90.70
26443;BME280;5563;52.296;6.806;2023-05-19T04:40:13;102578.41;;;6.09;90.70
26443;BME280;5563;52.296;6.806;2023-05-19T04:42:51;102560.88;;;6.05;90.61
26443;BME280;5563;52.296;6.806;2023-05-19T04:45:27;102567.75;;;6.11;90.62
26443;BME280;5563;52.296;6.806;2023-05-19T04:48:01;102586.56;;;6.28;90.74
26443;BME280;5563;52.296;6.806;2023-05-19T04:50:35;102593.97;;;6.43;90.99
26443;BME280;5563;52.296;6.806;2023-05-19T04:53:04;102582.56;;;6.41;90.67
26443;BME280;5563;52.296;6.806;2023-05-19T04:55:38;102574.78;;;6.36;90.33
26443;BME280;5563;52.296;6.806;2023-05-19T04:58:12;102564.25;;;6.35;90.47
26443;BME280;5563;52.296;6.806;2023-05-19T05:00:46;102569.56;;;6.35;90.39
26443;BME280;5563;52.296;6.806;2023-05-19T05:03:13;102606.63;;;6.60;90.45
26443;BME280;5563;52.296;6.806;2023-05-19T05:05:47;102564.81;;;6.43;90.37
26443;BME280;5563;52.296;6.806;2023-05-19T05:08:18;102571.41;;;6.56;90.43
26443;BME280;5563;52.296;6.806;2023-05-19T05:11:01;102577.16;;;6.67;90.79
26443;BME280;5563;52.296;6.806;2023-05-19T05:13:29;102584.84;;;6.75;90.41
26443;BME280;5563;52.296;6.806;2023-05-19T05:16:03;102583.53;;;6.86;90.77
26443;BME280;5563;52.296;6.806;2023-05-19T05:18:40;102571.94;;;6.89;90.32
26443;BME280;5563;52.296;6.806;2023-05-19T05:21:10;102580.56;;;6.94;89.94
26443;BME280;5563;52.296;6.806;2023-05-19T05:23:44;102555.00;;;6.93;89.97
26443;BME280;5563;52.296;6.806;2023-05-19T05:26:29;102573.75;;;7.10;89.98
26443;BME280;5563;52.296;6.806;2023-05-19T05:28:57;102557.75;;;7.13;89.63
26443;BME280;5563;52.296;6.806;2023-05-19T05:31:31;102551.94;;;7.25;89.43
26443;BME280;5563;52.296;6.806;2023-05-19T05:33:58;102570.69;;;7.42;89.07
26443;BME280;5563;52.296;6.806;2023-05-19T05:36:39;102576.44;;;7.53;88.82
26443;BME280;5563;52.296;6.806;2023-05-19T05:39:22;102562.13;;;7.57;88.46
26443;BME280;5563;52.296;6.806;2023-05-19T05:41:56;102591.31;;;7.79;88.61
26443;BME280;5563;52.296;6.806;2023-05-19T05:44:26;102571.97;;;7.75;88.34
26443;BME280;5563;52.296;6.806;2023-05-19T05:47:01;102595.75;;;7.98;88.16
26443;BME280;5563;52.296;6.806;2023-05-19T05:49:32;102566.97;;;7.89;87.38
26443;BME280;5563;52.296;6.806;2023-05-19T05:52:10;102554.41;;;7.93;87.22
26443;BME280;5563;52.296;6.806;2023-05-19T05:54:45;102580.88;;;8.14;86.10
26443;BME280;5563;52.296;6.806;2023-05-19T05:57:19;102556.22;;;8.12;86.39
26443;BME280;5563;52.296;6.806;2023-05-19T05:59:53;102582.47;;;8.40;86.25
26443;BME280;5563;52.296;6.806;2023-05-19T06:02:27;102569.97;;;8.42;85.42
26443;BME280;5563;52.296;6.806;2023-05-19T06:04:55;102583.44;;;8.57;85.52
26443;BME280;5563;52.296;6.806;2023-05-19T06:07:29;102569.25;;;8.57;85.52
26443;BME280;5563;52.296;6.806;2023-05-19T06:10:04;102580.22;;;8.69;85.52
26443;BME280;5563;52.296;6.806;2023-05-19T06:12:38;102557.16;;;8.70;85.17
26443;BME280;5563;52.296;6.806;2023-05-19T06:15:13;102579.09;;;8.94;84.92
26443;BME280;5563;52.296;6.806;2023-05-19T06:17:40;102570.03;;;8.98;84.75
26443;BME280;5563;52.296;6.806;2023-05-19T06:20:17;102588.44;;;9.21;83.82
26443;BME280;5563;52.296;6.806;2023-05-19T06:22:44;102558.53;;;9.16;83.33
26443;BME280;5563;52.296;6.806;2023-05-19T06:25:18;102576.03;;;9.38;82.98
26443;BME280;5563;52.296;6.806;2023-05-19T06:27:46;102566.91;;;9.44;83.33
26443;BME280;5563;52.296;6.806;2023-05-19T06:30:28;102572.66;;;9.53;82.73
26443;BME280;5563;52.296;6.806;2023-05-19T06:32:56;102582.53;;;9.68;82.34
26443;BME280;5563;52.296;6.806;2023-05-19T06:35:30;102589.94;;;9.80;82.26
26443;BME280;5563;52.296;6.806;2023-05-19T06:38:04;102579.34;;;9.79;81.20
26443;BME280;5563;52.296;6.806;2023-05-19T06:40:45;102575.38;;;9.88;81.19
26443;BME280;5563;52.296;6.806;2023-05-19T06:43:19;102602.78;;;10.07;79.72
26443;BME280;5563;52.296;6.806;2023-05-19T06:45:59;102599.78;;;10.14;79.15
26443;BME280;5563;52.296;6.806;2023-05-19T06:48:26;102581.41;;;10.08;78.99
26443;BME280;5563;52.296;6.806;2023-05-19T06:51:00;102564.50;;;10.09;79.50
26443;BME280;5563;52.296;6.806;2023-05-19T06:53:27;102588.94;;;10.34;79.61
26443;BME280;5563;52.296;6.806;2023-05-19T06:56:01;102604.06;;;10.51;78.97
26443;BME280;5563;52.296;6.806;2023-05-19T06:58:28;102581.16;;;10.47;78.75
26443;BME280;5563;52.296;6.806;2023-05-19T07:01:02;102584.22;;;10.56;77.28
26443;BME280;5563;52.296;6.806;2023-05-19T07:03:29;102569.91;;;10.57;76.75
26443;BME280;5563;52.296;6.806;2023-05-19T07:06:06;102584.34;;;10.70;75.19
26443;BME280;5563;52.296;6.806;2023-05-19T07:08:40;102575.63;;;10.67;74.45
26443;BME280;5563;52.296;6.806;2023-05-19T07:11:14;102573.16;;;10.79;75.62
26443;BME280;5563;52.296;6.806;2023-05-19T07:13:48;102568.34;;;10.86;75.57
26443;BME280;5563;52.296;6.806;2023-05-19T07:16:15;102581.47;;;11.06;74.53
26443;BME280;5563;52.296;6.806;2023-05-19T07:18:49;102568.47;;;11.16;75.15
26443;BME280;5563;52.296;6.806;2023-05-19T07:21:16;102560.03;;;11.23;72.66
26443;BME280;5563;52.296;6.806;2023-05-19T07:23:50;102562.09;;;11.34;71.75
26443;BME280;5563;52.296;6.806;2023-05-19T07:26:17;102558.91;;;11.43;71.81
26443;BME280;5563;52.296;6.806;2023-05-19T07:28:51;102586.97;;;11.65;72.23
26443;BME280;5563;52.296;6.806;2023-05-19T07:31:18;102559.06;;;11.55;71.69
26443;BME280;5563;52.296;6.806;2023-05-19T07:33:52;102555.59;;;11.69;69.72
26443;BME280;5563;52.296;6.806;2023-05-19T07:36:26;102578.59;;;11.87;71.02
26443;BME280;5563;52.296;6.806;2023-05-19T07:39:00;102562.53;;;11.87;70.73
26443;BME280;5563;52.296;6.806;2023-05-19T07:41:34;102555.22;;;11.90;70.26
26443;BME280;5563;52.296;6.806;2023-05-19T07:44:10;102558.09;;;12.02;70.43
26443;BME280;5563;52.296;6.806;2023-05-19T07:46:38;102575.53;;;12.23;69.55
26443;BME280;5563;52.296;6.806;2023-05-19T07:49:05;102555.88;;;12.24;69.65
26443;BME280;5563;52.296;6.806;2023-05-19T07:51:39;102579.69;;;12.42;67.84
26443;BME280;5563;52.296;6.806;2023-05-19T07:54:07;102556.69;;;12.40;66.33
26443;BME280;5563;52.296;6.806;2023-05-19T07:56:46;102548.16;;;12.47;65.32
26443;BME280;5563;52.296;6.806;2023-05-19T07:59:14;102559.81;;;12.60;66.55
26443;BME280;5563;52.296;6.806;2023-05-19T08:01:48;102578.66;;;12.87;66.71
26443;BME280;5563;52.296;6.806;2023-05-19T08:04:15;102570.81;;;12.98;65.75
26443;BME280;5563;52.296;6.806;2023-05-19T08:06:49;102542.72;;;12.91;63.83
26443;BME280;5563;52.296;6.806;2023-05-19T08:09:19;102548.41;;;12.99;64.10
26443;BME280;5563;52.296;6.806;2023-05-19T08:11:53;102578.72;;;13.28;62.05
26443;BME280;5563;52.296;6.806;2023-05-19T08:14:20;102540.13;;;13.18;62.17
26443;BME280;5563;52.296;6.806;2023-05-19T08:16:55;102559.94;;;13.42;63.90
26443;BME280;5563;52.296;6.806;2023-05-19T08:19:24;102542.81;;;13.44;62.75
26443;BME280;5563;52.296;6.806;2023-05-19T08:22:02;102539.53;;;13.66;63.30
26443;BME280;5563;52.296;6.806;2023-05-19T08:24:32;102547.75;;;13.89;61.91
26443;BME280;5563;52.296;6.806;2023-05-19T08:27:06;102531.59;;;14.03;61.76
26443;BME280;5563;52.296;6.806;2023-05-19T08:29:33;102525.19;;;14.19;58.99
26443;BME280;5563;52.296;6.806;2023-05-19T08:32:07;102545.50;;;14.48;60.01
26443;BME280;5563;52.296;6.806;2023-05-19T08:34:38;102552.03;;;14.69;56.86
26443;BME280;5563;52.296;6.806;2023-05-19T08:37:18;102507.72;;;14.63;56.58
26443;BME280;5563;52.296;6.806;2023-05-19T08:39:45;102549.44;;;14.92;55.28
26443;BME280;5563;52.296;6.806;2023-05-19T08:42:19;102512.38;;;14.85;53.27
26443;BME280;5563;52.296;6.806;2023-05-19T08:44:46;102524.84;;;14.98;55.17
26443;BME280;5563;52.296;6.806;2023-05-19T08:47:14;102534.69;;;15.10;53.20
26443;BME280;5563;52.296;6.806;2023-05-19T08:49:51;102516.16;;;15.18;55.03
26443;BME280;5563;52.296;6.806;2023-05-19T08:56:13;102505.50;;;15.77;50.68
26443;BME280;5563;52.296;6.806;2023-05-19T08:58:49;102515.72;;;16.06;52.17
26443;BME280;5563;52.296;6.806;2023-05-19T09:01:17;102519.56;;;16.26;49.62
26443;BME280;5563;52.296;6.806;2023-05-19T09:03:51;102513.78;;;16.19;49.06
26443;BME280;5563;52.296;6.806;2023-05-19T09:06:25;102494.75;;;16.34;50.04
26443;BME280;5563;52.296;6.806;2023-05-19T09:08:52;102489.34;;;16.45;48.23
26443;BME280;5563;52.296;6.806;2023-05-19T09:11:26;102489.88;;;16.61;48.80
26443;BME280;5563;52.296;6.806;2023-05-19T09:14:00;102500.03;;;16.79;49.60
26443;BME280;5563;52.296;6.806;2023-05-19T09:16:34;102497.06;;;17.04;49.03
26443;BME280;5563;52.296;6.806;2023-05-19T09:19:12;102496.88;;;17.28;47.16
26443;BME280;5563;52.296;6.806;2023-05-19T09:21:57;102495.00;;;17.51;48.13
26443;BME280;5563;52.296;6.806;2023-05-19T09:24:27;102497.81;;;17.81;46.78
26443;BME280;5563;52.296;6.806;2023-05-19T09:27:01;102490.09;;;17.97;46.58
26443;BME280;5563;52.296;6.806;2023-05-19T09:29:28;102492.72;;;18.08;43.73
26443;BME280;5563;52.296;6.806;2023-05-19T09:32:01;102495.50;;;18.17;44.90
26443;BME280;5563;52.296;6.806;2023-05-19T09:34:30;102476.88;;;17.94;43.25
26443;BME280;5563;52.296;6.806;2023-05-19T09:37:04;102489.91;;;17.89;45.92
26443;BME280;5563;52.296;6.806;2023-05-19T09:39:38;102484.31;;;18.01;44.86
26443;BME280;5563;52.296;6.806;2023-05-19T09:42:12;102487.00;;;18.22;43.93
26443;BME280;5563;52.296;6.806;2023-05-19T09:44:40;102489.16;;;18.49;44.69
26443;BME280;5563;52.296;6.806;2023-05-19T09:47:14;102492.06;;;18.66;41.97
26443;BME280;5563;52.296;6.806;2023-05-19T09:49:49;102482.75;;;18.89;40.48
26443;BME280;5563;52.296;6.806;2023-05-19T09:52:24;102488.88;;;18.91;39.98
26443;BME280;5563;52.296;6.806;2023-05-19T09:54:58;102486.09;;;19.02;39.74
26443;BME280;5563;52.296;6.806;2023-05-19T09:57:33;102485.09;;;19.13;38.81
26443;BME280;5563;52.296;6.806;2023-05-19T10:00:10;102463.59;;;19.02;38.41
26443;BME280;5563;52.296;6.806;2023-05-19T10:02:41;102484.78;;;18.97;38.75
26443;BME280;5563;52.296;6.806;2023-05-19T10:05:17;102471.66;;;18.83;39.80
26443;BME280;5563;52.296;6.806;2023-05-19T10:07:55;102465.53;;;18.71;39.21
26443;BME280;5563;52.296;6.806;2023-05-19T10:10:22;102452.44;;;18.76;39.91
26443;BME280;5563;52.296;6.806;2023-05-19T10:12:57;102476.09;;;18.93;39.32
26443;BME280;5563;52.296;6.806;2023-05-19T10:15:31;102464.75;;;18.99;38.56
26443;BME280;5563;52.296;6.806;2023-05-19T10:18:24;102473.41;;;18.93;37.49
26443;BME280;5563;52.296;6.806;2023-05-19T10:20:59;102468.31;;;18.60;38.66
26443;BME280;5563;52.296;6.806;2023-05-19T10:23:33;102453.91;;;18.50;39.16
26443;BME280;5563;52.296;6.806;2023-05-19T10:26:07;102468.91;;;18.64;40.09
26443;BME280;5563;52.296;6.806;2023-05-19T10:28:43;102459.41;;;18.69;38.75
26443;BME280;5563;52.296;6.806;2023-05-19T10:31:15;102451.72;;;18.84;39.37
26443;BME280;5563;52.296;6.806;2023-05-19T10:36:52;102437.28;;;19.23;36.41
26443;BME280;5563;52.296;6.806;2023-05-19T10:39:41;102431.66;;;19.45;37.92
26443;BME280;5563;52.296;6.806;2023-05-19T10:42:24;102429.78;;;19.74;36.33
26443;BME280;5563;52.296;6.806;2023-05-19T10:45:29;102420.69;;;19.56;36.17
26443;BME280;5563;52.296;6.806;2023-05-19T10:48:10;102432.22;;;19.49;36.32
26443;BME280;5563;52.296;6.806;2023-05-19T10:50:38;102427.81;;;19.48;37.58
26443;BME280;5563;52.296;6.806;2023-05-19T10:53:16;102431.50;;;19.56;36.75
26443;BME280;5563;52.296;6.806;2023-05-19T10:55:51;102433.75;;;19.80;36.47
26443;BME280;5563;52.296;6.806;2023-05-19T11:01:18;102422.13;;;20.25;35.64
26443;BME280;5563;52.296;6.806;2023-05-19T11:03:51;102413.53;;;20.39;35.09
26443;BME280;5563;52.296;6.806;2023-05-19T11:06:30;102417.53;;;20.26;35.17
26443;BME280;5563;52.296;6.806;2023-05-19T11:09:08;102412.72;;;20.10;35.48
26443;BME280;5563;52.296;6.806;2023-05-19T11:12:01;102434.97;;;20.51;37.12
26443;BME280;5563;52.296;6.806;2023-05-19T11:14:29;102424.69;;;20.81;34.94
26443;BME280;5563;52.296;6.806;2023-05-19T11:17:12;102421.97;;;20.81;37.05
26443;BME280;5563;52.296;6.806;2023-05-19T11:19:51;102422.81;;;20.64;34.99
26443;BME280;5563;52.296;6.806;2023-05-19T11:22:26;102422.06;;;20.35;34.27
26443;BME280;5563;52.296;6.806;2023-05-19T11:24:53;102434.09;;;20.13;34.42
26443;BME280;5563;52.296;6.806;2023-05-19T11:29:55;102430.81;;;20.10;35.11
26443;BME280;5563;52.296;6.806;2023-05-19T11:32:31;102425.31;;;19.92;35.45
26443;BME280;5563;52.296;6.806;2023-05-19T11:35:01;102418.66;;;19.77;36.17
26443;BME280;5563;52.296;6.806;2023-05-19T11:37:35;102419.94;;;19.73;36.39
26443;BME280;5563;52.296;6.806;2023-05-19T11:40:09;102389.94;;;20.03;37.13
26443;BME280;5563;52.296;6.806;2023-05-19T11:42:43;102407.88;;;20.23;34.53
26443;BME280;5563;52.296;6.806;2023-05-19T11:45:10;102401.72;;;20.58;35.81
26443;BME280;5563;52.296;6.806;2023-05-19T11:47:45;102404.72;;;20.55;33.14
26443;BME280;5563;52.296;6.806;2023-05-19T11:50:29;102405.81;;;20.35;33.33
26443;BME280;5563;52.296;6.806;2023-05-19T11:53:03;102392.22;;;20.08;35.52
26443;BME280;5563;52.296;6.806;2023-05-19T11:55:30;102394.72;;;20.38;36.75
26443;BME280;5563;52.296;6.806;2023-05-19T11:58:01;102397.16;;;20.59;35.37
26443;BME280;5563;52.296;6.806;2023-05-19T12:00:40;102401.59;;;20.77;33.76
26443;BME280;5563;52.296;6.806;2023-05-19T12:03:07;102404.00;;;20.63;33.61
26443;BME280;5563;52.296;6.806;2023-05-19T12:05:44;102393.50;;;20.50;32.92
26443;BME280;5563;52.296;6.806;2023-05-19T12:08:20;102401.34;;;20.71;33.50
26443;BME280;5563;52.296;6.806;2023-05-19T12:10:48;102404.41;;;20.85;33.65
26443;BME280;5563;52.296;6.806;2023-05-19T12:13:24;102393.63;;;21.03;33.56
26443;BME280;5563;52.296;6.806;2023-05-19T12:15:59;102374.63;;;21.20;33.78
26443;BME280;5563;52.296;6.806;2023-05-19T12:18:28;102401.91;;;21.36;31.90
26443;BME280;5563;52.296;6.806;2023-05-19T12:21:04;102403.88;;;20.82;32.36
26443;BME280;5563;52.296;6.806;2023-05-19T12:23:32;102397.41;;;20.38;34.15
26443;BME280;5563;52.296;6.806;2023-05-19T12:26:06;102397.03;;;20.23;33.67
26443;BME280;5563;52.296;6.806;2023-05-19T12:28:33;102396.53;;;20.01;34.98
26443;BME280;5563;52.296;6.806;2023-05-19T12:31:07;102398.06;;;20.03;34.96
26443;BME280;5563;52.296;6.806;2023-05-19T12:33:40;102384.25;;;20.43;35.25
26443;BME280;5563;52.296;6.806;2023-05-19T12:36:07;102397.69;;;20.62;32.78
26443;BME280;5563;52.296;6.806;2023-05-19T12:38:53;102392.34;;;20.25;32.88
26443;BME280;5563;52.296;6.806;2023-05-19T12:41:20;102384.59;;;19.84;32.72
26443;BME280;5563;52.296;6.806;2023-05-19T12:43:54;102378.53;;;20.09;34.42
26443;BME280;5563;52.296;6.806;2023-05-19T12:46:21;102363.97;;;20.47;32.78
26443;BME280;5563;52.296;6.806;2023-05-19T12:48:57;102369.50;;;20.55;31.96
26443;BME280;5563;52.296;6.806;2023-05-19T12:51:26;102378.25;;;20.22;32.92
26443;BME280;5563;52.296;6.806;2023-05-19T12:54:02;102375.78;;;20.28;33.73
26443;BME280;5563;52.296;6.806;2023-05-19T12:56:30;102378.69;;;20.08;33.53
26443;BME280;5563;52.296;6.806;2023-05-19T12:59:04;102376.53;;;20.11;34.16
26443;BME280;5563;52.296;6.806;2023-05-19T13:01:31;102377.53;;;20.20;35.49
26443;BME280;5563;52.296;6.806;2023-05-19T13:04:04;102376.78;;;20.55;33.58
26443;BME280;5563;52.296;6.806;2023-05-19T13:06:38;102371.41;;;20.90;32.72
26443;BME280;5563;52.296;6.806;2023-05-19T13:09:05;102366.56;;;21.11;31.38
26443;BME280;5563;52.296;6.806;2023-05-19T13:11:42;102375.81;;;21.18;30.11
26443;BME280;5563;52.296;6.806;2023-05-19T13:14:09;102357.63;;;21.36;31.34
26443;BME280;5563;52.296;6.806;2023-05-19T13:16:45;102356.84;;;21.87;32.64
26443;BME280;5563;52.296;6.806;2023-05-19T13:19:13;102357.13;;;22.35;30.53
26443;BME280;5563;52.296;6.806;2023-05-19T13:21:50;102357.09;;;22.69;30.21
26443;BME280;5563;52.296;6.806;2023-05-19T13:24:17;102354.13;;;22.54;29.51
26443;BME280;5563;52.296;6.806;2023-05-19T13:26:51;102355.56;;;21.99;29.84
26443;BME280;5563;52.296;6.806;2023-05-19T13:29:19;102347.88;;;21.69;30.23
26443;BME280;5563;52.296;6.806;2023-05-19T13:31:53;102351.53;;;21.60;30.02
26443;BME280;5563;52.296;6.806;2023-05-19T13:34:20;102339.72;;;21.69;30.00
26443;BME280;5563;52.296;6.806;2023-05-19T13:36:47;102345.84;;;21.88;29.90
26443;BME280;5563;52.296;6.806;2023-05-19T13:39:21;102328.06;;;22.02;29.78
26443;BME280;5563;52.296;6.806;2023-05-19T13:41:48;102347.31;;;22.50;30.10
26443;BME280;5563;52.296;6.806;2023-05-19T13:44:21;102318.78;;;22.54;28.42
26443;BME280;5563;52.296;6.806;2023-05-19T13:46:50;102324.97;;;22.72;27.83
26443;BME280;5563;52.296;6.806;2023-05-19T13:49:23;102315.97;;;22.96;28.36
26443;BME280;5563;52.296;6.806;2023-05-19T13:51:50;102333.03;;;23.30;29.19
26443;BME280;5563;52.296;6.806;2023-05-19T13:54:24;102347.50;;;22.57;28.36
26443;BME280;5563;52.296;6.806;2023-05-19T13:56:51;102339.34;;;21.81;28.99
26443;BME280;5563;52.296;6.806;2023-05-19T13:59:24;102342.75;;;21.40;28.72
26443;BME280;5563;52.296;6.806;2023-05-19T14:01:51;102321.31;;;21.11;29.82
26443;BME280;5563;52.296;6.806;2023-05-19T14:04:25;102330.19;;;21.39;29.92
26443;BME280;5563;52.296;6.806;2023-05-19T14:06:59;102328.09;;;21.76;29.30
26443;BME280;5563;52.296;6.806;2023-05-19T14:09:26;102332.09;;;21.90;28.22
26443;BME280;5563;52.296;6.806;2023-05-19T14:11:59;102327.34;;;21.92;27.87